Time;durP1;ratioP1;P1;durP2;ratioP2;P2;SDS_P1;SDS_P2;PMS_P1;PMS_P2;Temp;Humidity;BMP_temperature;BMP_pressure;BME280_temperature;BME280_humidity;BME280_pressure;Samples;Min_cycle;Max_cycle;Signal;HPM_P1;HPM_P2
2023/07/13 00:00:56;;;;;;;2.38;0.70;;;25.40;43.80;;;;;;5010240;28;20030;-78
2023/07/13 00:03:22;;;;;;;1.80;0.70;;;25.40;43.80;;;;;;5011427;28;20042;-78
2023/07/13 00:05:58;;;;;;;2.03;0.75;;;25.40;43.80;;;;;;5011633;28;20030;-78
2023/07/13 00:08:24;;;;;;;2.88;0.70;;;25.40;44.00;;;;;;5011599;28;20037;-78
2023/07/13 00:10:54;;;;;;;1.17;0.35;;;25.30;43.80;;;;;;5011954;28;20097;-78
2023/07/13 00:13:20;;;;;;;3.03;0.88;;;25.40;43.80;;;;;;5011503;28;20033;-78
2023/07/13 00:15:46;;;;;;;2.38;0.70;;;25.30;43.70;;;;;;5011887;28;20037;-78
2023/07/13 00:18:13;;;;;;;3.08;0.70;;;;;;;;;;5011677;28;20022;-78
2023/07/13 00:20:41;;;;;;;2.08;0.90;;;25.30;43.30;;;;;;5011302;28;20029;-78
2023/07/13 00:23:07;;;;;;;1.40;0.47;;;25.30;43.90;;;;;;5012595;28;20034;-77
2023/07/13 00:25:33;;;;;;;4.05;0.85;;;25.30;43.90;;;;;;5015136;28;20022;-78
2023/07/13 00:27:59;;;;;;;2.47;0.70;;;;;;;;;;5015153;28;20026;-78
2023/07/13 00:30:25;;;;;;;3.47;0.90;;;25.30;43.40;;;;;;5015038;28;20049;-78
2023/07/13 00:32:51;;;;;;;1.55;0.68;;;25.30;44.00;;;;;;4997610;28;20030;-78
2023/07/13 00:35:18;;;;;;;2.88;0.55;;;25.30;44.00;;;;;;5015106;28;20390;-78
2023/07/13 00:37:44;;;;;;;2.83;0.82;;;25.30;44.00;;;;;;5014929;28;20394;-78
2023/07/13 00:40:12;;;;;;;2.25;0.70;;;25.30;44.00;;;;;;5014902;28;20437;-78
2023/07/13 00:42:40;;;;;;;3.13;0.93;;;25.30;43.90;;;;;;5014826;28;20050;-78
2023/07/13 00:45:12;;;;;;;1.95;0.60;;;25.10;60.50;;;;;;5014780;28;20044;-77
2023/07/13 00:47:41;;;;;;;1.60;0.60;;;25.20;44.00;;;;;;5014570;28;20049;-78
2023/07/13 00:50:12;;;;;;;2.57;0.67;;;25.20;44.10;;;;;;5014755;28;20025;-78
2023/07/13 00:52:46;;;;;;;1.75;0.50;;;25.20;44.20;;;;;;5014698;28;20128;-78
2023/07/13 00:55:14;;;;;;;3.25;0.90;;;25.20;44.40;;;;;;5014494;28;20076;-78
2023/07/13 00:57:41;;;;;;;3.63;0.90;;;25.20;44.20;;;;;;5014148;28;20480;-78
2023/07/13 01:00:09;;;;;;;2.53;0.70;;;25.20;44.10;;;;;;5014237;28;20097;-78
2023/07/13 01:02:41;;;;;;;1.98;0.65;;;25.20;44.20;;;;;;5013971;28;20060;-78
2023/07/13 01:05:12;;;;;;;2.47;0.75;;;25.10;44.10;;;;;;5014453;28;20026;-78
2023/07/13 01:07:39;;;;;;;2.67;0.82;;;25.10;44.10;;;;;;5014411;28;20034;-78
2023/07/13 01:10:06;;;;;;;2.10;0.77;;;25.10;44.10;;;;;;5014784;28;20076;-78
2023/07/13 01:12:32;;;;;;;2.78;0.80;;;25.10;44.20;;;;;;5014134;28;20025;-78
2023/07/13 01:15:00;;;;;;;1.38;0.70;;;25.10;44.20;;;;;;5014549;28;20046;-78
2023/07/13 01:17:29;;;;;;;1.75;0.70;;;25.10;44.50;;;;;;5014259;28;20080;-78
2023/07/13 01:19:55;;;;;;;1.98;0.80;;;25.10;44.40;;;;;;5014192;28;20554;-78
2023/07/13 01:22:25;;;;;;;4.22;1.00;;;25.10;44.40;;;;;;5014554;28;20357;-78
2023/07/13 01:24:51;;;;;;;2.58;0.68;;;25.10;44.30;;;;;;5014411;28;20079;-78
2023/07/13 01:27:25;;;;;;;2.60;0.88;;;25.10;44.40;;;;;;5014633;28;20428;-78
2023/07/13 01:29:53;;;;;;;2.20;0.70;;;25.10;44.40;;;;;;5014246;28;20568;-78
2023/07/13 01:32:23;;;;;;;1.63;0.52;;;24.30;44.00;;;;;;5014494;28;20057;-78
2023/07/13 01:34:54;;;;;;;;;;;25.00;44.40;;;;;;5013182;28;20014;-78
2023/07/13 01:37:20;;;;;;;;;;;25.10;44.40;;;;;;5014555;28;19905;-78
2023/07/13 01:39:46;;;;;;;3.20;0.70;;;25.00;44.30;;;;;;5013827;28;19912;-78
2023/07/13 01:42:14;;;;;;;3.63;0.90;;;25.00;44.30;;;;;;5013718;28;20017;-78
2023/07/13 01:44:40;;;;;;;1.58;0.75;;;25.00;44.90;;;;;;5014314;28;20388;-78
2023/07/13 01:47:07;;;;;;;3.13;1.10;;;25.00;44.60;;;;;;5013691;28;20405;-78
2023/07/13 01:49:33;;;;;;;2.80;0.90;;;25.00;44.70;;;;;;5013560;28;20461;-78
2023/07/13 01:51:59;;;;;;;4.07;0.80;;;25.00;44.50;;;;;;5013549;28;20444;-78
2023/07/13 01:54:26;;;;;;;1.95;0.60;;;24.90;44.50;;;;;;5013976;28;20026;-78
2023/07/13 01:56:52;;;;;;;2.25;0.77;;;24.90;44.50;;;;;;5013484;28;20030;-78
2023/07/13 01:59:18;;;;;;;3.25;1.00;;;24.90;44.70;;;;;;5013621;28;20022;-78
2023/07/13 02:01:44;;;;;;;2.72;0.75;;;24.90;44.50;;;;;;5013435;28;20029;-78
2023/07/13 02:04:10;;;;;;;3.70;0.77;;;24.90;44.60;;;;;;5013269;28;20052;-78
2023/07/13 02:06:37;;;;;;;2.22;0.85;;;24.90;44.60;;;;;;5013160;28;20038;-78
2023/07/13 02:09:03;;;;;;;2.45;0.90;;;24.90;44.60;;;;;;5013159;28;20065;-78
2023/07/13 02:11:32;;;;;;;1.95;0.70;;;24.90;44.70;;;;;;5013105;28;20022;-78
2023/07/13 02:14:02;;;;;;;3.20;1.00;;;24.90;44.70;;;;;;5013296;28;20393;-78
2023/07/13 02:16:29;;;;;;;;;;;24.90;44.70;;;;;;5013382;28;20546;-78
2023/07/13 02:18:55;;;;;;;2.50;0.70;;;24.90;44.70;;;;;;5013325;28;20006;-78
2023/07/13 02:21:23;;;;;;;2.13;0.63;;;24.90;44.70;;;;;;5012924;28;20033;-78
2023/07/13 02:23:49;;;;;;;3.38;0.90;;;24.90;44.80;;;;;;5013310;28;20037;-78
2023/07/13 02:26:16;;;;;;;3.13;0.90;;;24.90;44.80;;;;;;5012844;28;20395;-78
2023/07/13 02:28:42;;;;;;;1.80;0.68;;;24.80;45.00;;;;;;5012699;28;20033;-78
2023/07/13 02:31:11;;;;;;;3.42;1.00;;;24.80;44.80;;;;;;5012647;28;20397;-78
2023/07/13 02:33:38;;;;;;;1.55;0.52;;;24.80;44.80;;;;;;5012794;28;20093;-78
2023/07/13 02:36:05;;;;;;;1.50;0.75;;;24.80;44.90;;;;;;5012795;28;20386;-78
2023/07/13 02:38:36;;;;;;;2.35;0.70;;;24.80;44.90;;;;;;5012708;28;20042;-77
2023/07/13 02:41:04;;;;;;;1.10;0.55;;;24.80;44.90;;;;;;5012437;28;20030;-78
2023/07/13 02:43:30;;;;;;;1.02;0.47;;;24.80;45.00;;;;;;5012139;28;20018;-78
2023/07/13 02:45:56;;;;;;;2.50;0.65;;;24.70;45.00;;;;;;5012255;28;20109;-78
2023/07/13 02:48:22;;;;;;;2.05;0.77;;;24.80;45.00;;;;;;5012159;28;20515;-78
2023/07/13 02:50:48;;;;;;;2.60;0.77;;;24.70;45.00;;;;;;5012361;28;20056;-77
2023/07/13 02:53:14;;;;;;;3.30;1.00;;;24.70;45.00;;;;;;5012140;28;20033;-78
2023/07/13 02:55:40;;;;;;;2.55;0.90;;;24.70;45.00;;;;;;5011935;28;20026;-78
2023/07/13 02:58:07;;;;;;;4.20;1.02;;;24.70;45.10;;;;;;5012053;28;20026;-77
2023/07/13 03:00:34;;;;;;;2.22;1.02;;;24.70;45.10;;;;;;5012092;28;20022;-78
2023/07/13 03:03:00;;;;;;;2.25;0.88;;;24.70;45.10;;;;;;5011494;28;20164;-78
2023/07/13 03:05:26;;;;;;;3.63;0.80;;;24.70;45.10;;;;;;5011916;28;20033;-78
2023/07/13 03:07:52;;;;;;;3.97;0.93;;;24.70;45.10;;;;;;5011772;28;20094;-78
2023/07/13 03:10:19;;;;;;;2.72;1.08;;;24.90;62.20;;;;;;5011500;28;20072;-78
2023/07/13 03:12:45;;;;;;;1.73;0.82;;;24.70;45.10;;;;;;5011529;28;20022;-78
2023/07/13 03:15:12;;;;;;;3.83;0.82;;;24.70;45.10;;;;;;5011835;28;20074;-78
2023/07/13 03:17:38;;;;;;;2.47;0.70;;;24.70;45.20;;;;;;5011386;28;20478;-78
2023/07/13 03:20:05;;;;;;;3.28;1.00;;;24.60;45.20;;;;;;5011660;28;20409;-78
2023/07/13 03:22:31;;;;;;;2.67;0.95;;;24.60;45.10;;;;;;5011647;28;20033;-77
2023/07/13 03:24:57;;;;;;;3.22;0.90;;;24.60;45.30;;;;;;5011399;28;20125;-78
2023/07/13 03:27:23;;;;;;;3.33;0.88;;;24.60;45.30;;;;;;5011291;28;20040;-78
2023/07/13 03:29:50;;;;;;;2.40;1.02;;;24.60;45.30;;;;;;5011576;28;20073;-78
2023/07/13 03:32:16;;;;;;;3.00;0.85;;;24.60;45.30;;;;;;4994270;28;20065;-78
2023/07/13 03:34:42;;;;;;;3.22;0.82;;;24.60;45.30;;;;;;5011545;28;20035;-79
2023/07/13 03:37:09;;;;;;;2.53;1.05;;;24.60;45.40;;;;;;5011829;28;20030;-78
2023/07/13 03:39:35;;;;;;;4.00;1.00;;;24.60;45.40;;;;;;5011477;28;20034;-78
2023/07/13 03:42:01;;;;;;;3.25;0.88;;;24.50;45.30;;;;;;5011858;28;20041;-78
2023/07/13 03:44:27;;;;;;;2.22;0.90;;;24.60;45.50;;;;;;5011492;28;20018;-78
2023/07/13 03:46:54;;;;;;;2.95;0.80;;;24.50;46.00;;;;;;5011600;28;20030;-78
2023/07/13 03:49:19;;;;;;;3.17;1.02;;;24.50;45.40;;;;;;4993342;28;20026;-78
2023/07/13 03:51:45;;;;;;;3.15;0.82;;;24.50;45.40;;;;;;5011580;28;20030;-78
2023/07/13 03:54:11;;;;;;;3.35;1.00;;;24.50;45.40;;;;;;5011530;28;20022;-78
2023/07/13 03:56:36;;;;;;;3.47;1.10;;;24.50;45.40;;;;;;4977867;28;20029;-78
2023/07/13 03:59:02;;;;;;;4.25;1.20;;;24.50;46.10;;;;;;4996441;28;20029;-78
2023/07/13 04:01:28;;;;;;;2.35;0.77;;;24.50;45.50;;;;;;5015822;28;20018;-78
2023/07/13 04:03:54;;;;;;;5.15;1.15;;;24.50;45.60;;;;;;5015281;28;20050;-78
2023/07/13 04:06:23;;;;;;;2.83;0.90;;;24.50;45.60;;;;;;5015321;28;20048;-78
2023/07/13 04:08:53;;;;;;;2.60;0.82;;;24.40;45.60;;;;;;5015658;28;20053;-78
2023/07/13 04:11:21;;;;;;;3.13;0.90;;;24.40;45.60;;;;;;5015113;28;20580;-78
2023/07/13 04:13:47;;;;;;;3.65;1.13;;;24.50;45.60;;;;;;5015067;28;20453;-78
2023/07/13 04:16:15;;;;;;;3.08;1.30;;;24.40;45.70;;;;;;5015039;28;20026;-78
2023/07/13 04:18:41;;;;;;;3.65;1.20;;;24.50;45.80;;;;;;5015161;28;20138;-78
2023/07/13 04:21:08;;;;;;;4.72;1.17;;;23.50;45.40;;;;;;5015071;28;20034;-78
2023/07/13 04:23:34;;;;;;;2.70;0.93;;;24.40;45.90;;;;;;5015031;28;20018;-78
2023/07/13 04:26:00;;;;;;;3.88;0.90;;;24.40;45.90;;;;;;4997392;28;20052;-78
2023/07/13 04:28:27;;;;;;;4.25;1.00;;;24.40;46.00;;;;;;5014761;28;20201;-78
2023/07/13 04:30:53;;;;;;;6.85;1.42;;;24.40;46.00;;;;;;5014579;28;20030;-78
2023/07/13 04:33:22;;;;;;;2.58;0.98;;;24.40;45.90;;;;;;5014478;28;20397;-78
2023/07/13 04:35:54;;;;;;;3.97;1.00;;;24.30;63.50;;;;;;5014431;28;20030;-78
2023/07/13 04:38:20;;;;;;;2.90;1.08;;;24.40;46.00;;;;;;5014338;28;20693;-78
2023/07/13 04:40:47;;;;;;;4.30;1.10;;;24.50;63.00;;;;;;5014396;28;20030;-78
2023/07/13 04:43:12;;;;;;;3.88;1.10;;;24.40;46.00;;;;;;5014128;28;20041;-78
2023/07/13 04:45:38;;;;;;;2.83;0.98;;;24.30;46.00;;;;;;5014080;28;20026;-78
2023/07/13 04:48:05;;;;;;;2.10;0.90;;;24.40;46.20;;;;;;5014380;28;20400;-77
2023/07/13 04:50:31;;;;;;;6.65;1.27;;;24.40;46.10;;;;;;5014390;28;20076;-79
2023/07/13 04:52:57;;;;;;;2.53;0.88;;;24.30;46.10;;;;;;5014126;28;20030;-79
2023/07/13 04:55:22;;;;;;;5.45;1.52;;;24.30;46.20;;;;;;5014060;28;20036;-78
2023/07/13 04:57:48;;;;;;;3.60;1.20;;;24.00;63.30;;;;;;5014065;28;20113;-78
2023/07/13 05:00:15;;;;;;;3.72;0.90;;;24.30;46.10;;;;;;5013976;28;20026;-77
2023/07/13 05:02:44;;;;;;;2.90;1.00;;;24.50;63.40;;;;;;5013650;28;20056;-78
2023/07/13 05:05:09;;;;;;;2.97;1.08;;;24.30;46.20;;;;;;4996338;28;20026;-77
2023/07/13 05:07:36;;;;;;;2.75;0.88;;;24.30;46.20;;;;;;5014029;28;20429;-77
2023/07/13 05:10:03;;;;;;;3.35;1.30;;;24.30;46.40;;;;;;5014393;28;20049;-78
2023/07/13 05:12:29;;;;;;;5.95;1.58;;;24.30;46.40;;;;;;5014570;28;20097;-77
2023/07/13 05:14:55;;;;;;;3.22;0.95;;;24.50;64.00;;;;;;4996626;28;20117;-78
2023/07/13 05:17:21;;;;;;;2.60;0.98;;;24.20;46.50;;;;;;5014659;28;20468;-77
2023/07/13 05:19:47;;;;;;;5.25;1.30;;;24.20;46.60;;;;;;5014471;28;20033;-78
2023/07/13 05:22:13;;;;;;;3.92;1.02;;;24.30;46.50;;;;;;5014755;28;20369;-77
2023/07/13 05:24:39;;;;;;;3.05;1.20;;;24.30;46.60;;;;;;5014564;28;20026;-77
2023/07/13 05:27:05;;;;;;;4.00;1.02;;;24.30;46.60;;;;;;5014147;28;20030;-77
2023/07/13 05:29:32;;;;;;;4.60;1.65;;;24.20;46.60;;;;;;5015220;28;20026;-77
2023/07/13 05:31:58;;;;;;;2.80;1.15;;;24.30;47.40;;;;;;5018257;28;20022;-78
2023/07/13 05:34:25;;;;;;;5.72;1.08;;;24.20;47.70;;;;;;5015732;28;20472;-77
2023/07/13 05:36:52;;;;;;;4.32;1.65;;;24.20;46.80;;;;;;5015399;28;20465;-81
2023/07/13 05:39:18;;;;;;;4.20;1.30;;;24.20;46.80;;;;;;5015951;28;20025;-80
2023/07/13 05:41:45;;;;;;;3.47;0.93;;;24.20;46.70;;;;;;5014943;28;20040;-80
2023/07/13 05:44:11;;;;;;;4.05;1.00;;;;;;;;;;5014886;28;20029;-79
2023/07/13 05:46:37;;;;;;;5.38;1.10;;;24.20;46.30;;;;;;5013673;28;20034;-78
2023/07/13 05:49:03;;;;;;;3.88;1.33;;;24.20;46.90;;;;;;5014335;28;20011;-79
2023/07/13 05:51:30;;;;;;;3.38;1.45;;;;;;;;;;5013738;28;20030;-79
2023/07/13 05:53:56;;;;;;;6.95;2.42;;;24.20;46.50;;;;;;5013560;28;20041;-79
2023/07/13 05:56:23;;;;;;;4.28;1.20;;;24.20;47.00;;;;;;5014335;28;20029;-80
2023/07/13 05:58:49;;;;;;;4.05;1.30;;;24.20;47.10;;;;;;5013757;28;20342;-79
2023/07/13 06:01:16;;;;;;;4.20;1.02;;;24.50;64.40;;;;;;5013870;28;20026;-79
2023/07/13 06:03:42;;;;;;;3.83;1.23;;;;;;;;;;5013490;28;20042;-80
2023/07/13 06:06:10;;;;;;;3.92;1.38;;;24.00;64.20;;;;;;5013647;28;20037;-81
2023/07/13 06:08:37;;;;;;;2.63;1.15;;;24.20;47.30;;;;;;5013907;28;20052;-80
2023/07/13 06:11:12;;;;;;;4.85;1.42;;;24.50;64.70;;;;;;5014127;28;20091;-81
2023/07/13 06:13:38;;;;;;;5.75;1.30;;;24.20;47.50;;;;;;4997697;28;20029;-81
2023/07/13 06:16:05;;;;;;;6.75;1.88;;;24.50;64.90;;;;;;5013893;28;20022;-81
2023/07/13 06:18:33;;;;;;;6.93;1.88;;;24.20;47.70;;;;;;5013567;28;20547;-82
2023/07/13 06:20:59;;;;;;;5.45;1.48;;;23.80;64.50;;;;;;5012962;28;20030;-81
2023/07/13 06:23:26;;;;;;;4.38;1.77;;;24.20;47.60;;;;;;5013676;28;20029;-81
2023/07/13 06:25:52;;;;;;;6.35;1.58;;;24.20;47.70;;;;;;5013213;28;20037;-81
2023/07/13 06:28:19;;;;;;;7.85;1.90;;;24.20;47.70;;;;;;5013824;28;20093;-83
2023/07/13 06:30:45;;;;;;;5.75;1.83;;;24.20;47.70;;;;;;5013338;28;20033;-82
2023/07/13 06:33:10;;;;;;;6.28;1.55;;;24.20;47.80;;;;;;5013049;28;20628;-79
2023/07/13 06:35:36;;;;;;;8.45;2.30;;;;;;;;;;5013186;28;20040;-79
2023/07/13 06:38:02;;;;;;;7.43;2.17;;;;;;;;;;5013199;28;20038;-78
2023/07/13 06:40:30;;;;;;;7.22;2.00;;;24.20;47.40;;;;;;4995618;28;20060;-78
2023/07/13 06:42:55;;;;;;;7.97;2.03;;;24.20;47.80;;;;;;5013396;28;20152;-80
2023/07/13 06:45:21;;;;;;;6.35;1.63;;;24.50;65.10;;;;;;5013110;28;20026;-77
2023/07/13 06:47:57;;;;;;;9.02;1.90;;;;;;;;;;5013092;28;20029;-78
2023/07/13 06:50:26;;;;;;;7.15;1.85;;;24.20;47.60;;;;;;4997105;28;20041;-77
2023/07/13 06:52:52;;;;;;;6.38;1.55;;;;;;;;;;5013142;28;20026;-78
2023/07/13 06:55:18;;;;;;;5.50;1.63;;;24.20;47.50;;;;;;4995064;28;20022;-78
2023/07/13 06:57:44;;;;;;;5.10;1.63;;;24.20;48.10;;;;;;5012872;28;20036;-79
2023/07/13 07:00:11;;;;;;;2.92;1.33;;;24.20;48.10;;;;;;5012791;28;20022;-78
2023/07/13 07:02:37;;;;;;;6.50;1.83;;;24.20;48.20;;;;;;4997482;28;20041;-78
2023/07/13 07:05:04;;;;;;;6.32;1.70;;;24.20;48.30;;;;;;5012898;28;20018;-78
2023/07/13 07:07:30;;;;;;;5.43;1.45;;;;;;;;;;5012464;28;20034;-77
2023/07/13 07:09:57;;;;;;;6.40;1.90;;;24.20;47.70;;;;;;5012736;28;20053;-81
2023/07/13 07:12:23;;;;;;;3.00;1.15;;;;;;;;;;5012558;28;20025;-79
2023/07/13 07:14:50;;;;;;;4.38;1.40;;;24.20;47.70;;;;;;5012533;28;20026;-75
2023/07/13 07:17:16;;;;;;;5.22;1.67;;;24.20;48.40;;;;;;5012416;28;20222;-76
2023/07/13 07:19:42;;;;;;;4.03;1.60;;;24.20;48.30;;;;;;5012343;28;20389;-76
2023/07/13 07:22:08;;;;;;;4.75;1.50;;;24.20;48.50;;;;;;5012730;28;20086;-77
2023/07/13 07:24:34;;;;;;;5.70;1.58;;;;;;;;;;5012013;28;20357;-75
2023/07/13 07:27:01;;;;;;;6.03;1.55;;;;;;;;;;4994092;28;20045;-76
2023/07/13 07:29:27;;;;;;;3.78;1.17;;;24.20;48.00;;;;;;5011881;28;20447;-74
2023/07/13 07:31:54;;;;;;;4.45;1.67;;;24.20;49.20;;;;;;5011601;28;20484;-75
2023/07/13 07:34:20;;;;;;;4.03;1.45;;;;;;;;;;5011375;28;20026;-75
2023/07/13 07:36:47;;;;;;;6.68;1.50;;;;;;;;;;5012145;28;20392;-76
2023/07/13 07:39:14;;;;;;;3.92;1.40;;;;;;;;;;5012258;28;20101;-76
2023/07/13 07:41:40;;;;;;;4.60;1.33;;;;;;;;;;5011901;28;20109;-76
2023/07/13 07:44:09;;;;;;;6.80;1.58;;;;;;;;;;5012172;28;20057;-75
2023/07/13 07:46:36;;;;;;;4.85;1.63;;;;;;;;;;5011886;28;20044;-75
2023/07/13 07:49:02;;;;;;;2.53;1.23;;;;;;;;;;5011707;28;20469;-75
2023/07/13 07:51:28;;;;;;;3.97;1.45;;;;;;;;;;5011878;28;20026;-75
2023/07/13 07:53:55;;;;;;;7.00;1.63;;;;;;;;;;5012030;28;20037;-76
2023/07/13 07:56:21;;;;;;;4.03;1.33;;;;;;;;;;5011808;28;20033;-76
2023/07/13 07:58:47;;;;;;;4.53;1.55;;;;;;;;;;5011914;28;20034;-76
2023/07/13 08:01:13;;;;;;;6.25;1.58;;;;;;;;;;5011945;28;20033;-75
2023/07/13 08:03:39;;;;;;;5.07;1.73;;;;;;;;;;4979920;28;20074;-76
2023/07/13 08:06:05;;;;;;;4.03;1.67;;;;;;;;;;4991970;28;20038;-75
2023/07/13 08:08:31;;;;;;;2.58;1.00;;;;;;;;;;4991810;28;20485;-76
2023/07/13 08:10:57;;;;;;;3.13;1.42;;;;;;;;;;4992038;28;20045;-75
2023/07/13 08:13:23;;;;;;;4.68;1.50;;;;;;;;;;4991966;28;20027;-76
2023/07/13 08:15:50;;;;;;;2.88;0.73;;;;;;;;;;4991843;28;20026;-78
2023/07/13 08:18:16;;;;;;;4.47;1.80;;;;;;;;;;4991860;28;20076;-76
2023/07/13 08:20:42;;;;;;;4.00;1.50;;;;;;;;;;4994395;28;20025;-76
2023/07/13 08:23:10;;;;;;;5.45;1.60;;;24.40;49.30;;;;;;4991911;28;20030;-77
2023/07/13 08:25:36;;;;;;;3.80;1.38;;;;;;;;;;4991751;28;20478;-77
2023/07/13 08:28:03;;;;;;;4.80;1.27;;;24.40;49.30;;;;;;4992128;28;20038;-77
2023/07/13 08:30:30;;;;;;;4.18;1.67;;;;;;;;;;4991958;28;20226;-77
2023/07/13 08:32:56;;;;;;;3.50;1.48;;;;;;;;;;4991841;28;20031;-76
2023/07/13 08:35:22;;;;;;;4.45;1.80;;;;;;;;;;4974292;28;20451;-75
2023/07/13 08:37:48;;;;;;;4.35;1.65;;;;;;;;;;4991717;28;20034;-77
2023/07/13 08:40:14;;;;;;;5.55;1.75;;;;;;;;;;4991750;28;20034;-76
2023/07/13 08:42:54;;;;;;;7.05;1.85;;;24.50;67.20;;;;;;4991922;28;20030;-77
2023/07/13 08:45:23;;;;;;;3.45;1.20;;;24.10;67.10;;;;;;4994671;28;20085;-76
2023/07/13 08:48:03;;;;;;;4.07;1.60;;;24.50;49.60;;;;;;4995269;28;20093;-76
2023/07/13 08:50:35;;;;;;;3.17;1.13;;;24.50;49.80;;;;;;4995372;28;20073;-76
2023/07/13 08:53:03;;;;;;;4.20;1.38;;;24.50;49.80;;;;;;4995510;28;20023;-77
2023/07/13 08:55:37;;;;;;;4.10;1.40;;;24.50;50.00;;;;;;4995187;28;20161;-77
2023/07/13 08:58:16;;;;;;;4.25;1.58;;;24.60;50.10;;;;;;4995619;28;20022;-77
2023/07/13 09:01:05;;;;;;;2.22;1.30;;;24.50;50.10;;;;;;4995052;28;20034;-77
2023/07/13 09:03:40;;;;;;;5.57;1.45;;;24.60;50.70;;;;;;5007724;28;20138;-77
2023/07/13 09:06:09;;;;;;;4.88;1.42;;;24.30;50.20;;;;;;5014708;28;20062;-76
2023/07/13 09:09:01;;;;;;;3.28;1.55;;;24.50;51.30;;;;;;5014570;28;20083;-76
2023/07/13 09:11:45;;;;;;;3.78;1.42;;;24.60;50.70;;;;;;4992630;28;20045;-77
2023/07/13 09:14:39;;;;;;;5.40;1.42;;;24.10;50.50;;;;;;5014627;28;20026;-77
2023/07/13 09:17:11;;;;;;;1.73;1.23;;;25.10;50.90;;;;;;5014673;28;20032;-77
2023/07/13 09:19:37;;;;;;;3.38;1.30;;;24.70;50.80;;;;;;5014513;28;20022;-78
2023/07/13 09:22:07;;;;;;;4.65;1.33;;;24.70;50.70;;;;;;4980645;28;20037;-78
2023/07/13 09:24:54;;;;;;;3.50;1.40;;;24.80;50.70;;;;;;5014315;28;20029;-79
2023/07/13 09:27:32;;;;;;;4.43;1.27;;;23.50;66.80;;;;;;5014080;28;20065;-79
2023/07/13 09:30:11;;;;;;;2.97;1.20;;;24.90;50.60;;;;;;5014283;28;20052;-79
2023/07/13 09:32:39;;;;;;;2.13;1.00;;;24.90;50.60;;;;;;5014381;28;20037;-78
2023/07/13 09:35:12;;;;;;;3.88;1.50;;;25.00;50.60;;;;;;5014164;28;20276;-78
2023/07/13 09:37:41;;;;;;;2.13;1.25;;;25.00;50.60;;;;;;5014067;28;20484;-79
2023/07/13 09:40:54;;;;;;;4.68;1.30;;;25.00;50.60;;;;;;5014197;28;20068;-78
2023/07/13 09:43:21;;;;;;;5.68;1.50;;;25.00;67.20;;;;;;4998176;28;20042;-77
2023/07/13 09:45:48;;;;;;;2.80;1.25;;;25.00;50.00;;;;;;5013816;28;20026;-76
2023/07/13 09:48:15;;;;;;;3.30;1.50;;;25.00;51.90;;;;;;4996106;28;20030;-79
2023/07/13 09:50:44;;;;;;;2.67;1.23;;;25.10;50.50;;;;;;5013747;28;20026;-78
2023/07/13 09:53:18;;;;;;;4.40;1.27;;;25.10;50.30;;;;;;5014013;28;20093;-78
2023/07/13 09:55:48;;;;;;;6.55;1.38;;;25.20;50.00;;;;;;5012981;28;20026;-78
2023/07/13 09:58:29;;;;;;;4.63;1.40;;;25.10;50.70;;;;;;5014052;28;20025;-77
2023/07/13 10:01:04;;;;;;;3.53;1.40;;;25.20;49.90;;;;;;5013780;28;20105;-76
2023/07/13 10:03:37;;;;;;;7.25;1.35;;;25.30;50.00;;;;;;5013357;28;20409;-77
2023/07/13 10:06:22;;;;;;;2.00;1.23;;;25.10;66.40;;;;;;5013236;28;20084;-77
2023/07/13 10:08:53;;;;;;;3.70;1.60;;;25.30;49.70;;;;;;5013552;28;20022;-77
2023/07/13 10:11:22;;;;;;;2.80;1.45;;;25.30;49.50;;;;;;5013447;28;20469;-77
2023/07/13 10:13:56;;;;;;;2.55;1.58;;;25.30;49.70;;;;;;5013529;28;20033;-77
2023/07/13 10:16:24;;;;;;;2.75;1.30;;;25.40;49.60;;;;;;4995825;28;20026;-78
2023/07/13 10:18:56;;;;;;;3.30;1.20;;;25.40;48.40;;;;;;5013483;28;20473;-78
2023/07/13 10:21:38;;;;;;;4.82;1.80;;;25.50;49.60;;;;;;5013840;28;20129;-76
2023/07/13 10:24:17;;;;;;;6.47;2.05;;;25.20;65.90;;;;;;5013302;28;20535;-78
2023/07/13 10:27:15;;;;;;;3.77;1.03;;;25.50;48.70;;;;;;5013548;28;20042;-80
2023/07/13 10:29:50;;;;;;;4.18;1.42;;;25.50;48.90;;;;;;4997992;28;20034;-78
2023/07/13 10:32:24;;;;;;;1.83;1.38;;;25.30;50.10;;;;;;5013368;28;20420;-80
2023/07/13 10:34:52;;;;;;;2.80;1.38;;;;;;;;;;5013734;28;20050;-80
2023/07/13 10:37:28;;;;;;;4.18;1.42;;;25.90;48.00;;;;;;4996231;28;20032;-80
2023/07/13 10:39:57;;;;;;;3.90;1.60;;;25.70;46.00;;;;;;5013293;28;20034;-80
2023/07/13 10:42:41;;;;;;;3.88;1.40;;;25.80;45.80;;;;;;5013095;28;20026;-80
2023/07/13 10:45:22;;;;;;;3.10;1.20;;;25.80;47.20;;;;;;5013121;28;20026;-78
2023/07/13 10:47:53;;;;;;;3.42;1.10;;;26.20;62.40;;;;;;5013684;28;20037;-81
2023/07/13 10:50:25;;;;;;;5.50;1.70;;;25.90;46.20;;;;;;4996221;28;20516;-81
2023/07/13 10:53:01;;;;;;;5.03;1.45;;;26.00;45.30;;;;;;5013665;28;20034;-80
2023/07/13 10:55:32;;;;;;;4.05;1.83;;;26.00;45.40;;;;;;5012860;28;20026;-75
2023/07/13 10:58:10;;;;;;;2.60;1.38;;;26.10;45.80;;;;;;5012513;28;20492;-74
2023/07/13 11:00:48;;;;;;;2.88;1.40;;;26.10;46.80;;;;;;5013364;28;20139;-75
2023/07/13 11:03:18;;;;;;;2.40;1.50;;;26.20;46.50;;;;;;5012807;28;20042;-75
2023/07/13 11:05:47;;;;;;;;;;;26.30;47.00;;;;;;5013102;28;20022;-75
2023/07/13 11:08:51;;;;;;;3.25;1.33;;;26.30;46.00;;;;;;5012249;28;19955;-78
2023/07/13 11:11:24;;;;;;;2.55;1.30;;;26.40;44.90;;;;;;5012574;28;20018;-75
2023/07/13 11:13:51;;;;;;;3.72;1.25;;;;;;;;;;5012736;28;20025;-76
2023/07/13 11:16:19;;;;;;;2.88;1.50;;;26.40;44.20;;;;;;5012773;28;20113;-76
2023/07/13 11:19:06;;;;;;;2.35;1.40;;;26.50;45.40;;;;;;5012541;28;20480;-76
2023/07/13 11:21:32;;;;;;;2.40;1.30;;;26.50;44.20;;;;;;5005312;28;20084;-77
2023/07/13 11:24:03;;;;;;;1.98;1.05;;;26.60;44.10;;;;;;5012469;28;20022;-75
2023/07/13 11:27:14;;;;;;;2.65;1.30;;;27.10;44.40;;;;;;5012250;28;20867;-75
2023/07/13 11:29:41;;;;;;;3.47;1.60;;;27.10;43.60;;;;;;4993569;28;20037;-76
2023/07/13 11:32:30;;;;;;;2.45;1.23;;;26.80;43.80;;;;;;5012260;28;20057;-76
2023/07/13 11:34:57;;;;;;;2.08;1.27;;;27.00;61.00;;;;;;4995013;28;20033;-75
2023/07/13 11:37:25;;;;;;;3.47;1.55;;;26.90;45.20;;;;;;5012023;28;20022;-78
2023/07/13 11:39:52;;;;;;;2.58;1.10;;;27.10;45.30;;;;;;5012551;28;20033;-76
2023/07/13 11:42:21;;;;;;;2.10;1.20;;;27.10;44.90;;;;;;5012200;28;20392;-79
2023/07/13 11:44:50;;;;;;;3.35;1.27;;;27.10;44.80;;;;;;5012525;28;20049;-77
2023/07/13 11:47:22;;;;;;;2.63;1.48;;;27.20;45.70;;;;;;5011994;28;20034;-78
2023/07/13 11:49:52;;;;;;;4.95;1.70;;;27.20;44.20;;;;;;5012189;28;20029;-79
2023/07/13 11:52:32;;;;;;;2.47;1.20;;;27.30;44.90;;;;;;4995036;28;20018;-79
2023/07/13 11:55:01;;;;;;;1.85;1.00;;;27.30;44.20;;;;;;5012063;28;20384;-79
2023/07/13 11:57:34;;;;;;;2.50;0.90;;;27.30;44.80;;;;;;5012047;28;20437;-76
2023/07/13 12:00:26;;;;;;;1.77;0.82;;;27.70;62.10;;;;;;5012372;28;20030;-79
2023/07/13 12:02:56;;;;;;;3.13;1.30;;;27.30;45.00;;;;;;5006532;28;20046;-76
2023/07/13 12:05:22;;;;;;;5.03;1.48;;;27.30;45.50;;;;;;5012139;28;20088;-76
2023/07/13 12:07:49;;;;;;;2.20;1.23;;;27.30;45.20;;;;;;5011988;28;20038;-76
2023/07/13 12:10:23;;;;;;;3.33;1.40;;;27.30;45.00;;;;;;5012251;28;20599;-77
2023/07/13 12:12:54;;;;;;;3.90;1.35;;;27.30;45.40;;;;;;5012153;28;20030;-77
2023/07/13 12:15:22;;;;;;;4.32;1.40;;;27.20;44.50;;;;;;5011741;28;20029;-77
2023/07/13 12:17:48;;;;;;;3.88;1.60;;;27.20;44.00;;;;;;5011983;28;20105;-77
2023/07/13 12:20:24;;;;;;;4.13;1.52;;;27.20;45.70;;;;;;5014528;28;20029;-77
2023/07/13 12:22:52;;;;;;;2.13;1.20;;;27.20;44.50;;;;;;5016005;28;20105;-77
2023/07/13 12:25:19;;;;;;;4.70;1.17;;;27.20;45.60;;;;;;5016073;28;20092;-77
2023/07/13 12:27:50;;;;;;;2.08;1.10;;;27.30;45.80;;;;;;5015761;28;20062;-76
2023/07/13 12:30:30;;;;;;;3.20;1.15;;;27.30;45.90;;;;;;5015498;28;20080;-78
2023/07/13 12:33:01;;;;;;;3.88;1.20;;;27.00;61.90;;;;;;5015623;28;20420;-78
2023/07/13 12:35:32;;;;;;;2.85;1.20;;;27.20;45.80;;;;;;5015515;28;20109;-78
2023/07/13 12:38:00;;;;;;;3.28;1.30;;;27.30;46.00;;;;;;5015455;28;20018;-78
2023/07/13 12:40:36;;;;;;;3.40;1.38;;;27.30;46.50;;;;;;5015324;28;20033;-78
2023/07/13 12:43:06;;;;;;;2.90;1.00;;;27.20;62.00;;;;;;5015472;28;20140;-76
2023/07/13 12:45:32;;;;;;;2.97;1.30;;;27.40;46.00;;;;;;5015327;28;20108;-77
2023/07/13 12:48:12;;;;;;;3.03;1.38;;;27.50;44.00;;;;;;5015284;28;20041;-76
2023/07/13 12:50:42;;;;;;;;;;;27.40;44.70;;;;;;5015396;28;20026;-78
2023/07/13 12:53:32;;;;;;;3.58;1.35;;;27.70;40.70;;;;;;5015528;28;19917;-77
2023/07/13 12:56:02;;;;;;;;;;;27.60;42.00;;;;;;5015734;28;20022;-77
2023/07/13 12:58:43;;;;;;;1.85;1.13;;;27.80;40.70;;;;;;5015005;28;20336;-77
2023/07/13 13:01:12;;;;;;;2.25;1.10;;;28.10;50.30;;;;;;5015011;28;20028;-77
2023/07/13 13:03:41;;;;;;;1.48;0.90;;;27.80;40.70;;;;;;5014733;28;20054;-78
2023/07/13 13:06:18;;;;;;;2.42;0.90;;;27.80;40.90;;;;;;5015059;28;20034;-79
2023/07/13 13:08:48;;;;;;;1.52;0.90;;;27.70;41.70;;;;;;4997147;28;20124;-81
2023/07/13 13:11:19;;;;;;;2.63;1.08;;;27.70;44.70;;;;;;5015277;28;20044;-81
2023/07/13 13:13:49;;;;;;;2.03;1.02;;;27.70;44.90;;;;;;5014928;28;20374;-81